Latest Coastal Weather Observations for Broome Port

IDW60701

Issued at 2:02 am WST Thursday 30 June 2016 (issued every 10 minutes, with the page automatically refreshed every 10 minutes)

About coastal observations | Map of coastal stations | Coastal observations for WA | Marine services | Other Formats
Station Details ID: 003102 Name: BROOME NTC AWS Lat: -18.00 Lon: 122.22 Height: 0.0 m
Data from the previous 72 hours. | See also: Recent months for locations in Western Australia
Date/Time
WST
Temp
°C
Wind Pressure Rain since
9am
mm
Weather Cloud Vis
km
Sea
Height
m
Swell
Dir  Spd
kts
Gust
kts
hPa Trend Height
m
Period
s
Dir
30/02:00am 24.4 CALM 0 1 1015.0 - - - - - - - - -
30/01:30am 24.7 S 1 2 1015.3 - - - - - - - - -
30/01:00am 25.0 CALM 0 0 1015.7 - - - - - - - - -
30/12:30am 25.7 W 2 2 1016.0 - - - - - - - - -
30/12:00am 25.8 WNW 3 3 1016.2 - - - - - - - - -
 
Date/Time
WST
Temp
°C
Wind Pressure Rain since
9am
mm
Weather Cloud Vis
km
Sea
Height
m
Swell
Dir  Spd
kts
Gust
kts
hPa Trend Height
m
Period
s
Dir
29/11:30pm 25.4 NW 2 2 1016.3 - - - - - - - - -
29/11:00pm 25.6 WNW 1 1 1016.4 - - - - - - - - -
29/10:30pm 25.7 WNW 2 2 1016.4 - - - - - - - - -
29/10:00pm 26.0 WNW 2 3 1016.4 - - - - - - - - -
29/09:30pm 25.5 N 2 4 1016.2 - - - - - - - - -
29/09:00pm 26.2 NW 4 6 1016.2 - - - - - - - - -
29/08:30pm 26.6 NW 7 8 1016.0 - - - - - - - - -
29/08:00pm 26.5 NW 7 8 1015.9 - - - - - - - - -
29/07:30pm 26.4 NW 7 7 1015.7 - - - - - - - - -
29/07:00pm 26.5 NW 7 9 1015.3 - - - - - - - - -
29/06:30pm 26.9 NW 8 9 1014.9 - - - - - - - - -
29/06:00pm 26.9 NW 9 11 1014.4 - - - - - - - - -
29/05:30pm 27.1 NW 10 12 1014.1 - - - - - - - - -
29/05:00pm 27.6 NW 11 13 1013.7 - - - - - - - - -
29/04:30pm 27.7 NW 11 13 1013.4 - - - - - - - - -
29/04:00pm 27.7 WNW 12 14 1012.9 - - - - - - - - -
29/03:30pm 28.2 WNW 12 13 1012.7 - - - - - - - - -
29/03:00pm 28.5 WNW 11 14 1012.6 - - - - - - - - -
29/02:30pm 28.8 WNW 12 14 1012.6 - - - - - - - - -
29/02:00pm 29.3 WNW 10 13 1012.7 - - - - - - - - -
29/01:30pm 29.2 WNW 9 11 1012.9 - - - - - - - - -
29/01:00pm 29.1 W 8 9 1013.2 - - - - - - - - -
29/12:30pm 29.5 W 6 7 1013.6 - - - - - - - - -
29/12:00pm 29.3 WSW 1 2 1014.2 - - - - - - - - -
29/11:30am 27.7 SE 1 1 1014.7 - - - - - - - - -
29/11:00am 26.6 SE 1 2 1015.0 - - - - - - - - -
29/10:30am 24.6 SSE 2 2 1015.3 - - - - - - - - -
29/10:00am 24.2 SE 2 3 1015.3 - - - - - - - - -
29/09:30am 23.7 ESE 3 4 1015.5 - - - - - - - - -
29/09:00am 23.5 E 3 4 1015.6 - - - - - - - - -
29/08:30am 23.3 ESE 2 3 1015.4 - - - - - - - - -
29/08:00am 24.6 E 1 1 1015.3 - - - - - - - - -
29/07:30am 23.2 NE 2 3 1015.1 - - - - - - - - -
29/07:00am 22.5 NE 2 3 1014.6 - - - - - - - - -
29/06:30am 22.3 NNE 2 3 1014.3 - - - - - - - - -
29/06:00am 22.6 NNE 2 2 1014.2 - - - - - - - - -
29/05:30am 23.7 ESE 3 4 1014.1 - - - - - - - - -
29/05:00am 23.6 ESE 4 5 1014.1 - - - - - - - - -
29/04:30am 23.5 SE 5 7 1014.1 - - - - - - - - -
29/04:00am 23.7 S 4 7 1014.0 - - - - - - - - -
29/03:30am 23.6 S 10 13 1014.0 - - - - - - - - -
29/03:00am 24.0 S 9 12 1014.1 - - - - - - - - -
29/02:30am 24.2 SSW 9 11 1014.3 - - - - - - - - -
29/02:00am 24.5 SW 10 12 1014.5 - - - - - - - - -
29/01:30am 24.4 SW 10 11 1014.8 - - - - - - - - -
29/01:00am 24.5 SW 9 11 1015.0 - - - - - - - - -
29/12:30am 24.4 SW 11 12 1015.1 - - - - - - - - -
29/12:00am 24.1 SW 7 8 1015.3 - - - - - - - - -
 
Date/Time
WST
Temp
°C
Wind Pressure Rain since
9am
mm
Weather Cloud Vis
km
Sea
Height
m
Swell
Dir  Spd
kts
Gust
kts
hPa Trend Height
m
Period
s
Dir
28/11:30pm 24.1 SW 7 8 1015.4 - - - - - - - - -
28/11:00pm 23.9 SW 7 8 1015.5 - - - - - - - - -
28/10:30pm 23.9 SSW 5 6 1015.5 - - - - - - - - -
28/10:00pm 24.8 SW 4 5 1015.6 - - - - - - - - -
28/09:30pm 25.0 W 3 4 1015.7 - - - - - - - - -
28/09:00pm 24.9 NW 3 3 1015.5 - - - - - - - - -
28/08:30pm 25.2 WNW 5 5 1015.3 - - - - - - - - -
28/08:00pm 25.2 NW 4 5 1015.1 - - - - - - - - -
28/07:30pm 25.6 W 6 9 1014.7 - - - - - - - - -
28/07:00pm 25.9 WNW 7 11 1014.2 - - - - - - - - -
28/06:30pm 25.9 WNW 7 8 1013.8 - - - - - - - - -
28/06:00pm 26.6 NW 9 11 1013.3 - - - - - - - - -
28/05:30pm 26.6 WNW 9 11 1012.9 - - - - - - - - -
28/05:00pm 27.4 NW 10 11 1012.6 - - - - - - - - -
28/04:30pm 28.3 WNW 10 12 1012.4 - - - - - - - - -
28/04:00pm 28.4 WNW 9 10 1012.2 - - - - - - - - -
28/03:30pm 28.9 WNW 9 11 1012.0 - - - - - - - - -
28/03:00pm 29.4 W 7 10 1011.9 - - - - - - - - -
28/02:30pm 29.1 WSW 7 8 1012.0 - - - - - - - - -
28/02:00pm 29.4 WSW 6 7 1012.1 - - - - - - - - -
28/01:30pm 28.9 SW 5 7 1012.3 - - - - - - - - -
28/01:00pm 29.1 SSW 6 7 1012.5 - - - - - - - - -
28/12:30pm 28.6 S 5 6 1012.8 - - - - - - - - -
28/12:00pm 28.0 SE 7 7 1013.1 - - - - - - - - -
28/11:30am 27.3 SE 7 8 1013.5 - - - - - - - - -
28/11:00am 26.0 ESE 9 9 1013.9 - - - - - - - - -
28/10:30am 25.5 ESE 10 12 1014.4 - - - - - - - - -
28/10:00am 24.7 ESE 11 13 1014.6 - - - - - - - - -
28/09:30am 24.0 ESE 14 16 1014.6 - - - - - - - - -
28/09:00am 22.8 ESE 14 16 1014.6 - - - - - - - - -
28/08:30am 22.2 E 13 14 1014.7 - - - - - - - - -
28/08:00am 21.7 E 12 14 1014.4 - - - - - - - - -
28/07:30am 21.5 E 12 14 1014.0 - - - - - - - - -
28/07:00am 21.3 E 13 15 1013.6 - - - - - - - - -
28/06:30am 21.1 E 9 14 1013.6 - - - - - - - - -
28/06:00am 20.4 E 6 11 1013.3 - - - - - - - - -
28/05:30am 20.7 E 7 10 1012.9 - - - - - - - - -
28/05:00am 21.4 ESE 10 12 1012.7 - - - - - - - - -
28/04:30am 21.6 ESE 10 11 1012.6 - - - - - - - - -
28/04:00am 21.5 ESE 9 11 1012.5 - - - - - - - - -
28/03:30am 21.3 ESE 10 11 1012.5 - - - - - - - - -
28/03:00am 21.5 ESE 10 11 1012.5 - - - - - - - - -
28/02:30am 21.9 ESE 11 13 1012.6 - - - - - - - - -
28/02:00am 22.6 ESE 13 15 1012.6 - - - - - - - - -
28/01:30am 22.6 ESE 13 15 1012.6 - - - - - - - - -
28/01:00am 23.0 ESE 13 15 1012.8 - - - - - - - - -
28/12:30am 23.2 ESE 11 13 1013.1 - - - - - - - - -
28/12:00am 23.3 SE 11 13 1013.2 - - - - - - - - -
 
Date/Time
WST
Temp
°C
Wind Pressure Rain since
9am
mm
Weather Cloud Vis
km
Sea
Height
m
Swell
Dir  Spd
kts
Gust
kts
hPa Trend Height
m
Period
s
Dir
27/11:30pm 23.2 ESE 11 13 1013.5 - - - - - - - - -
27/11:00pm 23.7 ESE 11 13 1013.6 - - - - - - - - -
27/10:30pm 23.9 SE 11 14 1013.7 - - - - - - - - -
27/10:00pm 24.5 SE 10 13 1013.8 - - - - - - - - -
27/09:30pm 25.1 SSE 8 9 1013.9 - - - - - - - - -
27/09:00pm 24.1 S 5 7 1014.0 - - - - - - - - -
27/08:30pm 24.1 S 4 6 1013.9 - - - - - - - - -
27/08:00pm 24.2 SSW 8 11 1013.9 - - - - - - - - -
27/07:30pm 25.3 S 7 12 1013.3 - - - - - - - - -
27/07:00pm 27.5 SE 12 13 1012.9 - - - - - - - - -
27/06:30pm 28.1 SE 13 14 1012.5 - - - - - - - - -
27/06:00pm 26.3 SE 8 9 1012.1 - - - - - - - - -
27/05:30pm 26.2 SE 6 7 1011.8 - - - - - - - - -
27/05:00pm 27.3 SE 8 9 1011.3 - - - - - - - - -
27/04:30pm 27.1 SSE 6 8 1011.0 - - - - - - - - -
27/04:00pm 27.1 SSE 2 5 1010.9 - - - - - - - - -
27/03:30pm 26.4 S 3 4 1010.8 - - - - - - - - -
27/03:00pm 26.5 SSE 3 5 1010.8 - - - - - - - - -
27/02:30pm 26.1 S 3 6 1010.9 - - - - - - - - -
27/02:00pm 25.6 SSE 6 9 1011.3 - - - - - - - - -
27/01:30pm 25.4 SE 7 10 1011.6 - - - - - - - - -
27/01:00pm 25.0 SE 10 11 1011.9 - - - - - - - - -
27/12:30pm 24.7 SE 13 15 1012.5 - - - - - - - - -
27/12:00pm 24.0 SE 14 16 1013.1 - - - - - - - - -
27/11:30am 23.5 SE 15 19 1013.8 - - - - - - - - -
27/11:00am 23.0 ESE 16 18 1014.4 - - - - - - - - -
27/10:30am 22.4 ESE 17 21 1014.7 - - - - - - - - -
27/10:00am 21.6 ESE 19 22 1014.8 - - - - - - - - -
27/09:30am 21.0 ESE 19 22 1015.0 - - - - - - - - -
27/09:00am 20.0 ESE 20 24 1015.1 - - - - - - - - -
27/08:30am 19.4 ESE 21 23 1015.1 - - - - - - - - -
27/08:00am 19.1 ESE 22 26 1015.0 - - - - - - - - -
27/07:30am 18.8 ESE 20 23 1014.8 - - - - - - - - -
27/07:00am 19.1 ESE 20 25 1014.6 - - - - - - - - -
27/06:30am 19.4 ESE 19 22 1014.5 - - - - - - - - -
27/06:00am 19.4 ESE 20 23 1014.5 - - - - - - - - -
27/05:30am 19.5 ESE 20 25 1014.3 - - - - - - - - -
27/05:00am 19.6 SE 20 25 1014.2 - - - - - - - - -
27/04:30am 19.8 SE 20 25 1014.3 - - - - - - - - -
27/04:00am 19.9 SE 20 23 1014.2 - - - - - - - - -
27/03:30am 20.3 SE 22 26 1014.1 - - - - - - - - -
27/03:00am 20.6 SE 21 25 1014.1 - - - - - - - - -
27/02:30am 21.0 SE 20 25 1014.2 - - - - - - - - -

Other Formats:

Comma delimited format used in spreadsheet applications
http://www.bom.gov.au/fwo/IDW60701/IDW60701.95202.axf

JavaScript Object Notation format (JSON) in row-major order
http://www.bom.gov.au/fwo/IDW60701/IDW60701.95202.json